Time;durP1;ratioP1;P1;durP2;ratioP2;P2;SDS_P1;SDS_P2;PMS_P1;PMS_P2;Temp;Humidity;BMP_temperature;BMP_pressure;BME280_temperature;BME280_humidity;BME280_pressure;Samples;Min_cycle;Max_cycle;Signal;HPM_P1;HPM_P2
2021/08/13 00:01:32;;;;;;;9.50;5.88;;;18.30;99.90;;;;;;5076827;28;20056;-73
2021/08/13 00:03:57;;;;;;;9.38;5.72;;;18.30;99.90;;;;;;5075391;28;20045;-75
2021/08/13 00:06:23;;;;;;;12.70;6.75;;;18.30;99.90;;;;;;5076226;28;20033;-77
2021/08/13 00:08:48;;;;;;;11.18;6.25;;;18.20;99.90;;;;;;5094835;28;20057;-73
2021/08/13 00:11:14;;;;;;;8.57;6.25;;;18.20;99.90;;;;;;5075954;28;20032;-74
2021/08/13 00:13:40;;;;;;;12.02;7.25;;;18.20;99.90;;;;;;5068033;28;20037;-74
2021/08/13 00:16:05;;;;;;;15.00;7.35;;;18.10;99.90;;;;;;5063670;28;20459;-75
2021/08/13 00:18:31;;;;;;;11.32;6.53;;;18.20;99.90;;;;;;5060003;28;20024;-75
2021/08/13 00:20:57;;;;;;;13.07;6.97;;;18.10;99.90;;;;;;5059692;28;20041;-74
2021/08/13 00:23:22;;;;;;;10.32;6.70;;;18.10;99.90;;;;;;5062666;28;20085;-75
2021/08/13 00:25:48;;;;;;;14.52;7.28;;;18.10;99.90;;;;;;5057858;28;20096;-75
2021/08/13 00:28:14;;;;;;;12.45;7.30;;;18.00;99.90;;;;;;5059009;28;20029;-76
2021/08/13 00:30:39;;;;;;;13.15;8.07;;;18.00;99.90;;;;;;5062691;28;20033;-75
2021/08/13 00:33:05;;;;;;;11.95;7.32;;;18.00;99.90;;;;;;5058826;28;20385;-75
2021/08/13 00:35:30;;;;;;;11.50;6.32;;;18.00;99.90;;;;;;5057582;28;20028;-75
2021/08/13 00:37:56;;;;;;;11.43;6.50;;;18.00;99.90;;;;;;5059465;28;20067;-75
2021/08/13 00:40:22;;;;;;;8.32;6.07;;;18.00;99.90;;;;;;5054884;28;20048;-76
2021/08/13 00:42:47;;;;;;;16.52;7.35;;;18.00;99.90;;;;;;5070111;28;20021;-75
2021/08/13 00:45:13;;;;;;;12.52;6.95;;;18.00;99.90;;;;;;5050529;28;20032;-75
2021/08/13 00:47:39;;;;;;;8.63;6.20;;;18.00;99.90;;;;;;5054778;28;20070;-75
2021/08/13 00:50:05;;;;;;;9.95;5.95;;;18.00;99.90;;;;;;5059856;28;20088;-75
2021/08/13 00:52:31;;;;;;;10.15;5.90;;;17.90;99.90;;;;;;5055276;28;20068;-75
2021/08/13 00:54:57;;;;;;;11.48;6.75;;;17.90;99.90;;;;;;5056047;28;20029;-75
2021/08/13 00:57:23;;;;;;;9.77;6.65;;;17.90;99.90;;;;;;5055377;28;20538;-76
2021/08/13 00:59:48;;;;;;;12.38;6.65;;;17.80;99.90;;;;;;5054447;28;20554;-77
2021/08/13 01:02:15;;;;;;;12.20;6.68;;;17.80;99.90;;;;;;5052220;28;20043;-76
2021/08/13 01:04:40;;;;;;;10.02;6.65;;;17.80;99.90;;;;;;5056341;28;20154;-76
2021/08/13 01:07:09;;;;;;;11.43;6.55;;;17.80;99.90;;;;;;5055109;28;20052;-75
2021/08/13 01:09:36;;;;;;;11.80;7.28;;;17.70;99.90;;;;;;5053716;28;20469;-76
2021/08/13 01:12:13;;;;;;;12.15;6.65;;;17.70;99.90;;;;;;5054756;28;20025;-76
2021/08/13 01:14:55;;;;;;;15.75;6.32;;;17.70;99.90;;;;;;5053711;28;20029;-75
2021/08/13 01:17:24;;;;;;;10.65;7.35;;;17.70;99.90;;;;;;5051786;28;20051;-74
2021/08/13 01:20:23;;;;;;;12.88;7.43;;;17.80;99.90;;;;;;5050963;28;20039;-75
2021/08/13 01:23:00;;;;;;;12.30;7.97;;;17.80;99.90;;;;;;5069580;28;20124;-76
2021/08/13 01:25:33;;;;;;;10.25;6.95;;;17.80;99.90;;;;;;5067742;28;20021;-74
2021/08/13 01:28:08;;;;;;;11.63;7.32;;;17.90;99.90;;;;;;5053646;28;20027;-75
2021/08/13 01:30:37;;;;;;;10.98;6.88;;;18.00;99.90;;;;;;5051450;28;20049;-76
2021/08/13 01:33:09;;;;;;;14.40;8.85;;;18.00;99.90;;;;;;5068647;28;20040;-75
2021/08/13 01:35:39;;;;;;;12.88;8.73;;;18.00;99.90;;;;;;5052075;28;20405;-76
2021/08/13 01:38:22;;;;;;;11.30;7.45;;;18.00;99.90;;;;;;5050794;28;20033;-75
2021/08/13 01:40:49;;;;;;;16.85;8.80;;;18.10;99.90;;;;;;5049452;28;20516;-76
2021/08/13 01:43:17;;;;;;;15.45;8.68;;;18.10;99.90;;;;;;5052134;28;20048;-75
2021/08/13 01:45:44;;;;;;;15.95;9.25;;;18.10;99.90;;;;;;5053639;28;20013;-75
2021/08/13 01:48:11;;;;;;;18.20;10.07;;;18.20;99.90;;;;;;5051275;28;20044;-76
2021/08/13 01:50:37;;;;;;;15.88;9.23;;;18.20;99.90;;;;;;5052355;28;20021;-75
2021/08/13 01:53:03;;;;;;;16.70;11.13;;;18.20;99.90;;;;;;5067856;28;20094;-77
2021/08/13 01:55:31;;;;;;;16.40;10.50;;;18.20;99.90;;;;;;5048648;28;20478;-74
2021/08/13 01:57:57;;;;;;;;;;;18.20;99.90;;;;;;5053321;28;20082;-75
2021/08/13 02:00:24;;;;;;;20.33;11.50;;;18.20;99.90;;;;;;5052489;28;20324;-75
2021/08/13 02:02:51;;;;;;;17.52;11.02;;;18.30;99.90;;;;;;5052250;28;20033;-76
2021/08/13 02:05:19;;;;;;;23.77;13.05;;;18.30;99.90;;;;;;5050776;28;20033;-76
2021/08/13 02:07:47;;;;;;;19.67;11.68;;;18.30;99.90;;;;;;5052318;28;20056;-75
2021/08/13 02:10:15;;;;;;;17.65;9.85;;;18.30;99.90;;;;;;5052177;28;20037;-77
2021/08/13 02:12:40;;;;;;;;;;;18.30;99.90;;;;;;5065711;28;20090;-75
2021/08/13 02:15:11;;;;;;;16.75;10.18;;;18.40;99.90;;;;;;5051565;28;19999;-75
2021/08/13 02:17:57;;;;;;;17.77;10.07;;;18.40;99.90;;;;;;5052705;28;20036;-76
2021/08/13 02:20:27;;;;;;;16.60;10.43;;;18.40;99.90;;;;;;5052420;28;20025;-75
2021/08/13 02:22:52;;;;;;;17.00;10.55;;;18.40;99.90;;;;;;5052396;28;20036;-75
2021/08/13 02:25:18;;;;;;;21.65;10.88;;;18.40;99.90;;;;;;5052602;28;20465;-75
2021/08/13 02:27:44;;;;;;;20.70;11.52;;;18.40;99.90;;;;;;5052574;28;20033;-75
2021/08/13 02:30:10;;;;;;;18.02;11.60;;;18.40;99.90;;;;;;5050923;28;20032;-76
2021/08/13 02:32:36;;;;;;;21.88;11.75;;;18.40;99.90;;;;;;5051054;28;20025;-75
2021/08/13 02:35:04;;;;;;;25.58;11.88;;;18.40;99.90;;;;;;5052486;28;20406;-76
2021/08/13 02:37:51;;;;;;;23.92;11.60;;;18.40;99.90;;;;;;5050674;28;20528;-76
2021/08/13 02:40:26;;;;;;;22.65;11.88;;;18.40;99.90;;;;;;5059615;28;20041;-75
2021/08/13 02:43:00;;;;;;;21.63;11.48;;;18.40;99.90;;;;;;5055700;28;20021;-75
2021/08/13 02:45:27;;;;;;;15.68;9.85;;;18.40;99.90;;;;;;5053679;28;20029;-75
2021/08/13 02:47:59;;;;;;;25.23;11.83;;;18.40;99.90;;;;;;5051683;28;20500;-75
2021/08/13 02:50:28;;;;;;;22.80;12.38;;;18.40;99.90;;;;;;5050985;28;20501;-75
2021/08/13 02:53:00;;;;;;;22.23;12.63;;;18.40;99.90;;;;;;5050891;28;20112;-75
2021/08/13 02:55:32;;;;;;;22.38;12.90;;;18.30;99.90;;;;;;5065059;28;20029;-75
2021/08/13 02:58:01;;;;;;;24.00;12.55;;;18.40;99.90;;;;;;5052182;28;20033;-75
2021/08/13 03:00:28;;;;;;;21.73;12.18;;;18.40;99.90;;;;;;5049501;28;20021;-75
2021/08/13 03:02:55;;;;;;;25.15;12.95;;;18.40;99.90;;;;;;5052109;28;20037;-75
2021/08/13 03:05:23;;;;;;;26.25;11.82;;;18.40;99.90;;;;;;5052069;28;20021;-74
2021/08/13 03:07:50;;;;;;;20.50;11.35;;;18.40;99.90;;;;;;5050036;28;20108;-74
2021/08/13 03:10:17;;;;;;;20.00;11.20;;;18.30;99.90;;;;;;5050958;28;20513;-75
2021/08/13 03:12:43;;;;;;;18.02;10.13;;;18.30;99.90;;;;;;5050233;28;20071;-75
2021/08/13 03:15:10;;;;;;;15.63;10.40;;;18.30;99.90;;;;;;5050490;28;20458;-75
2021/08/13 03:17:38;;;;;;;20.50;9.88;;;18.30;99.90;;;;;;5048898;28;20028;-76
2021/08/13 03:20:05;;;;;;;15.77;10.05;;;18.30;99.90;;;;;;5049715;28;20083;-75
2021/08/13 03:22:31;;;;;;;20.60;9.10;;;18.30;99.90;;;;;;5050224;28;20128;-75
2021/08/13 03:24:58;;;;;;;17.67;10.07;;;18.20;99.90;;;;;;5054614;28;20485;-76
2021/08/13 03:27:23;;;;;;;12.80;6.75;;;18.20;99.90;;;;;;5052175;28;20017;-75
2021/08/13 03:29:49;;;;;;;20.60;11.35;;;18.20;99.90;;;;;;5051636;28;20032;-75
2021/08/13 03:32:18;;;;;;;15.68;9.48;;;18.20;99.90;;;;;;5051688;28;20508;-75
2021/08/13 03:34:44;;;;;;;18.30;9.85;;;18.20;99.90;;;;;;5051365;28;20029;-76
2021/08/13 03:37:10;;;;;;;19.33;10.23;;;18.20;99.90;;;;;;5051267;28;20542;-75
2021/08/13 03:39:36;;;;;;;20.67;11.90;;;18.20;99.90;;;;;;5050091;28;20120;-75
2021/08/13 03:42:02;;;;;;;19.08;10.88;;;18.20;99.90;;;;;;5050074;28;20067;-74
2021/08/13 03:44:27;;;;;;;18.17;9.60;;;18.20;99.90;;;;;;5050046;28;20044;-76
2021/08/13 03:46:53;;;;;;;17.52;10.57;;;18.10;99.90;;;;;;5049949;28;20060;-75
2021/08/13 03:49:18;;;;;;;19.05;10.15;;;18.10;99.90;;;;;;5052875;28;20027;-75
2021/08/13 03:51:44;;;;;;;22.33;11.15;;;18.10;99.90;;;;;;5055234;28;20029;-75
2021/08/13 03:54:10;;;;;;;17.50;11.68;;;18.10;99.90;;;;;;5053357;28;20382;-75
2021/08/13 03:56:36;;;;;;;19.13;11.18;;;18.00;99.90;;;;;;5053579;28;20485;-75
2021/08/13 03:59:02;;;;;;;20.00;10.52;;;18.00;99.90;;;;;;5056045;28;20082;-75
2021/08/13 04:01:27;;;;;;;19.27;9.77;;;18.00;99.90;;;;;;5053836;28;20029;-74
2021/08/13 04:03:53;;;;;;;18.45;10.23;;;18.00;99.90;;;;;;5052851;28;20141;-78
2021/08/13 04:06:19;;;;;;;20.13;10.50;;;18.00;99.90;;;;;;5062286;28;20044;-75
2021/08/13 04:08:44;;;;;;;16.77;10.65;;;17.90;99.90;;;;;;5050990;28;20027;-75
2021/08/13 04:11:13;;;;;;;16.92;11.20;;;18.00;99.90;;;;;;5052288;28;20029;-75
2021/08/13 04:13:39;;;;;;;25.30;11.52;;;17.90;99.90;;;;;;5051868;28;20040;-75
2021/08/13 04:16:05;;;;;;;23.08;10.77;;;17.90;99.90;;;;;;5051175;28;20021;-75
2021/08/13 04:18:30;;;;;;;17.48;10.88;;;17.90;99.90;;;;;;5052783;28;20033;-75
2021/08/13 04:20:56;;;;;;;18.25;10.52;;;17.90;99.90;;;;;;5050964;28;20025;-75
2021/08/13 04:23:21;;;;;;;18.95;10.98;;;17.90;99.90;;;;;;5052095;28;20036;-75
2021/08/13 04:25:47;;;;;;;18.33;10.70;;;17.90;99.90;;;;;;5056374;28;20025;-74
2021/08/13 04:28:13;;;;;;;16.60;10.43;;;17.90;99.90;;;;;;5054350;28;20013;-75
2021/08/13 04:30:38;;;;;;;21.52;11.73;;;17.90;99.90;;;;;;5052472;28;20037;-75
2021/08/13 04:33:09;;;;;;;18.98;11.07;;;17.80;99.90;;;;;;5052661;28;20039;-75
2021/08/13 04:35:35;;;;;;;16.13;10.35;;;17.80;99.90;;;;;;5053920;28;20473;-75
2021/08/13 04:38:01;;;;;;;21.95;10.38;;;17.80;99.90;;;;;;5054204;28;20052;-75
2021/08/13 04:40:27;;;;;;;19.95;11.13;;;17.80;99.90;;;;;;5055210;28;20097;-76
2021/08/13 04:42:52;;;;;;;17.40;11.10;;;17.80;99.90;;;;;;5055623;28;20025;-74
2021/08/13 04:45:19;;;;;;;18.27;10.30;;;17.80;99.90;;;;;;5052748;28;20068;-74
2021/08/13 04:47:45;;;;;;;22.67;11.37;;;17.80;99.90;;;;;;5052480;28;20021;-74
2021/08/13 04:52:54;;;;;;;17.23;9.88;;;17.80;99.90;;;;;;5052569;28;20527;-74
2021/08/13 04:55:22;;;;;;;19.08;10.63;;;17.90;99.90;;;;;;5054087;28;20099;-75
2021/08/13 04:57:48;;;;;;;;;;;17.80;99.90;;;;;;5054282;28;20029;-74
2021/08/13 05:00:14;;;;;;;16.92;10.48;;;17.80;99.90;;;;;;5051617;28;19971;-74
2021/08/13 05:02:40;;;;;;;18.42;10.25;;;17.80;99.90;;;;;;5052503;28;20037;-74
2021/08/13 05:05:06;;;;;;;19.15;9.65;;;17.80;99.90;;;;;;5053735;28;20017;-74
2021/08/13 05:07:32;;;;;;;14.48;8.43;;;17.90;99.90;;;;;;5052392;28;20028;-74
2021/08/13 05:09:59;;;;;;;16.55;9.50;;;17.90;99.90;;;;;;5053233;28;20025;-75
2021/08/13 05:12:25;;;;;;;17.08;9.90;;;17.90;99.90;;;;;;5056204;28;20092;-74
2021/08/13 05:14:51;;;;;;;17.58;8.90;;;17.90;99.90;;;;;;5055808;28;20021;-74
2021/08/13 05:17:16;;;;;;;17.17;10.07;;;17.90;99.90;;;;;;5055890;28;20021;-74
2021/08/13 05:19:42;;;;;;;17.92;9.18;;;17.90;99.90;;;;;;5052422;28;20017;-76
2021/08/13 05:22:11;;;;;;;13.00;8.02;;;18.00;99.90;;;;;;5051400;28;20037;-75
2021/08/13 05:24:37;;;;;;;13.70;8.40;;;17.90;99.90;;;;;;5068567;28;20025;-75
2021/08/13 05:27:03;;;;;;;13.65;7.93;;;18.00;99.90;;;;;;5053313;28;20052;-75
2021/08/13 05:29:28;;;;;;;15.20;9.10;;;18.10;99.90;;;;;;5052308;28;20055;-75
2021/08/13 05:31:54;;;;;;;13.38;7.85;;;18.10;99.90;;;;;;5055921;28;20020;-75
2021/08/13 05:34:19;;;;;;;17.48;8.00;;;18.10;99.90;;;;;;5054033;28;20435;-75
2021/08/13 05:36:45;;;;;;;13.00;8.35;;;18.20;99.90;;;;;;5051398;28;20033;-74
2021/08/13 05:39:11;;;;;;;16.35;9.05;;;18.30;99.90;;;;;;5052852;28;20040;-75
2021/08/13 05:41:36;;;;;;;17.55;8.43;;;18.30;99.90;;;;;;5051749;28;20298;-74
2021/08/13 05:44:02;;;;;;;12.68;7.60;;;18.30;99.90;;;;;;5051567;28;20116;-74
2021/08/13 05:46:29;;;;;;;13.82;7.80;;;18.30;99.90;;;;;;5051701;28;20033;-75
2021/08/13 05:48:54;;;;;;;13.40;8.15;;;18.30;99.90;;;;;;5052838;28;20071;-75
2021/08/13 05:51:20;;;;;;;14.90;7.97;;;18.30;99.90;;;;;;5053068;28;21779;-75
2021/08/13 05:53:46;;;;;;;10.38;6.75;;;18.30;99.90;;;;;;5053268;28;20021;-75
2021/08/13 05:56:12;;;;;;;12.68;7.30;;;18.40;99.90;;;;;;5052913;28;20029;-75
2021/08/13 05:58:37;;;;;;;15.73;7.75;;;18.30;99.90;;;;;;5053799;28;20036;-74
2021/08/13 06:01:03;;;;;;;13.00;7.80;;;18.40;99.90;;;;;;5053636;28;20025;-75
2021/08/13 06:03:29;;;;;;;10.80;6.90;;;18.40;99.90;;;;;;5050156;28;20090;-74
2021/08/13 06:05:54;;;;;;;12.32;7.40;;;18.40;99.90;;;;;;5053722;28;20021;-74
2021/08/13 06:08:20;;;;;;;14.85;7.20;;;18.40;99.90;;;;;;5053757;28;20028;-74
2021/08/13 06:10:46;;;;;;;15.80;8.55;;;18.50;99.90;;;;;;5054793;28;20378;-74
2021/08/13 06:13:11;;;;;;;12.45;7.45;;;18.40;99.90;;;;;;5054875;28;20087;-75
2021/08/13 06:15:37;;;;;;;15.27;6.88;;;18.40;99.90;;;;;;5055045;28;20075;-75
2021/08/13 06:18:03;;;;;;;14.63;7.38;;;18.40;99.90;;;;;;5052787;28;20108;-74
2021/08/13 06:20:28;;;;;;;12.13;7.30;;;18.40;99.90;;;;;;5055388;28;20400;-76
2021/08/13 06:22:55;;;;;;;12.65;6.78;;;18.50;99.90;;;;;;5056133;28;20025;-75
2021/08/13 06:25:21;;;;;;;15.05;7.78;;;18.50;99.90;;;;;;5068510;28;20048;-74
2021/08/13 06:27:46;;;;;;;14.55;6.93;;;18.50;99.90;;;;;;5058206;28;20680;-74
2021/08/13 06:30:16;;;;;;;8.43;6.65;;;18.60;99.90;;;;;;5072991;28;20021;-75
2021/08/13 06:32:42;;;;;;;12.77;6.13;;;18.50;99.90;;;;;;5063339;28;20025;-75
2021/08/13 06:35:08;;;;;;;12.80;7.35;;;18.60;99.90;;;;;;5069982;28;20033;-75
2021/08/13 06:37:46;;;;;;;13.68;7.30;;;18.60;99.90;;;;;;5061656;28;20036;-75
2021/08/13 06:40:12;;;;;;;15.50;6.70;;;18.60;99.90;;;;;;5072886;28;20017;-74
2021/08/13 06:42:38;;;;;;;10.82;6.85;;;18.60;99.90;;;;;;5070061;28;20037;-75
2021/08/13 06:45:06;;;;;;;12.32;6.82;;;18.70;99.90;;;;;;5066559;28;20036;-75
2021/08/13 06:47:31;;;;;;;9.35;7.18;;;18.80;99.90;;;;;;5060828;28;20013;-76
2021/08/13 06:49:58;;;;;;;11.77;7.25;;;18.80;99.90;;;;;;5073833;28;20051;-75
2021/08/13 06:52:23;;;;;;;12.10;6.78;;;18.80;99.90;;;;;;5067731;28;20009;-75
2021/08/13 06:54:49;;;;;;;11.55;6.97;;;18.90;99.90;;;;;;5070970;28;20052;-73
2021/08/13 06:57:14;;;;;;;11.93;6.80;;;19.00;99.90;;;;;;5067782;28;20021;-76
2021/08/13 06:59:40;;;;;;;12.35;6.68;;;19.10;99.90;;;;;;5077782;28;20017;-74
2021/08/13 07:02:06;;;;;;;12.48;7.07;;;19.30;99.90;;;;;;5064118;28;20025;-73
2021/08/13 07:04:31;;;;;;;14.73;7.80;;;19.30;99.90;;;;;;5068441;28;20025;-73
2021/08/13 07:06:57;;;;;;;15.32;6.72;;;19.40;99.90;;;;;;5050638;28;20037;-77
2021/08/13 07:09:23;;;;;;;13.23;6.95;;;19.40;99.90;;;;;;5048288;28;20485;-75
2021/08/13 07:11:48;;;;;;;10.40;6.80;;;19.30;99.90;;;;;;5054927;28;20048;-75
2021/08/13 07:14:14;;;;;;;12.68;6.70;;;19.30;99.90;;;;;;5053756;28;20064;-75
2021/08/13 07:16:39;;;;;;;10.95;6.45;;;19.30;99.90;;;;;;5039314;28;20025;-75
2021/08/13 07:19:05;;;;;;;10.10;6.43;;;19.30;99.90;;;;;;5036592;28;20018;-75
2021/08/13 07:21:31;;;;;;;10.48;6.07;;;19.40;99.90;;;;;;5067257;28;20041;-75
2021/08/13 07:23:56;;;;;;;12.95;6.78;;;19.40;99.90;;;;;;5054990;28;20032;-75
2021/08/13 07:26:22;;;;;;;14.05;6.53;;;19.60;99.90;;;;;;5053507;28;20021;-76
2021/08/13 07:28:48;;;;;;;9.93;6.38;;;19.70;99.90;;;;;;5052857;28;20047;-74
2021/08/13 07:31:14;;;;;;;8.98;5.57;;;19.90;99.90;;;;;;5053315;28;20045;-75
2021/08/13 07:33:40;;;;;;;11.48;5.85;;;20.00;99.90;;;;;;5049240;28;20385;-75
2021/08/13 07:36:06;;;;;;;10.60;6.00;;;20.20;99.90;;;;;;5054390;28;20025;-74
2021/08/13 07:38:39;;;;;;;8.23;6.40;;;20.20;99.90;;;;;;5040322;28;20037;-75
2021/08/13 07:41:10;;;;;;;13.63;6.93;;;20.20;99.90;;;;;;5051360;28;20029;-74
2021/08/13 07:43:36;;;;;;;13.65;5.90;;;20.20;99.90;;;;;;5051304;28;20039;-76
2021/08/13 07:46:05;;;;;;;7.93;6.00;;;20.40;99.90;;;;;;5047930;28;20025;-77
2021/08/13 07:48:30;;;;;;;19.27;7.57;;;20.50;99.90;;;;;;5068040;28;20040;-75
2021/08/13 07:50:56;;;;;;;17.13;6.72;;;20.60;99.90;;;;;;5056142;28;20032;-74
2021/08/13 07:53:22;;;;;;;11.23;5.63;;;20.60;99.90;;;;;;5053632;28;20025;-74
2021/08/13 07:55:48;;;;;;;9.65;6.47;;;20.60;99.90;;;;;;5052938;28;20046;-74
2021/08/13 07:58:14;;;;;;;8.77;5.57;;;20.50;99.90;;;;;;5050776;28;20037;-74
2021/08/13 08:00:39;;;;;;;9.32;4.68;;;20.60;99.90;;;;;;5052654;28;20040;-74
2021/08/13 08:03:07;;;;;;;8.02;5.80;;;20.70;99.90;;;;;;5015795;28;1112001;-75
2021/08/13 08:05:32;;;;;;;;;;;20.80;99.90;;;;;;5052977;28;20110;-74
2021/08/13 08:07:58;;;;;;;8.23;5.03;;;20.70;99.90;;;;;;5053902;28;19913;-74
2021/08/13 08:10:24;;;;;;;6.68;4.45;;;20.80;99.90;;;;;;5056438;28;20129;-74
2021/08/13 08:12:49;;;;;;;11.27;4.68;;;20.90;99.90;;;;;;5054467;28;20082;-74
2021/08/13 08:15:15;;;;;;;7.13;3.47;;;20.90;99.90;;;;;;5054936;28;20039;-75
2021/08/13 08:17:41;;;;;;;6.38;3.50;;;20.90;99.90;;;;;;5069531;28;20044;-74
2021/08/13 08:20:07;;;;;;;5.18;3.40;;;20.90;99.90;;;;;;5054756;28;20033;-75
2021/08/13 08:22:33;;;;;;;9.68;3.22;;;20.90;99.90;;;;;;5053929;28;20048;-73
2021/08/13 08:24:59;;;;;;;6.15;2.58;;;21.00;99.90;;;;;;5066917;28;20069;-76
2021/08/13 08:27:25;;;;;;;3.60;2.28;;;21.00;99.90;;;;;;5071973;28;20067;-74
2021/08/13 08:29:50;;;;;;;9.63;3.20;;;21.00;99.90;;;;;;5054344;28;20035;-74
2021/08/13 08:32:16;;;;;;;4.82;2.70;;;21.20;99.90;;;;;;5054602;28;20032;-74
2021/08/13 08:34:42;;;;;;;8.88;3.30;;;21.40;99.90;;;;;;5072647;28;20043;-73
2021/08/13 08:37:11;;;;;;;8.55;3.00;;;21.50;99.90;;;;;;5056007;28;20036;-73
2021/08/13 08:39:43;;;;;;;6.07;2.97;;;21.60;99.90;;;;;;5051067;28;20087;-74
2021/08/13 08:42:13;;;;;;;5.72;2.95;;;21.70;99.90;;;;;;5052695;28;20435;-73
2021/08/13 08:44:40;;;;;;;5.38;2.80;;;21.80;99.90;;;;;;5048787;28;20025;-73
2021/08/13 08:47:09;;;;;;;4.82;3.20;;;21.90;99.90;;;;;;5060364;28;20029;-73
2021/08/13 08:49:40;;;;;;;3.42;2.50;;;22.20;99.90;;;;;;5052711;28;20020;-76
2021/08/13 08:52:11;;;;;;;8.07;4.03;;;22.50;99.90;;;;;;5059965;28;20499;-74
2021/08/13 08:54:38;;;;;;;4.60;3.42;;;22.50;99.90;;;;;;5056039;28;20039;-73
2021/08/13 08:57:05;;;;;;;4.97;3.40;;;22.70;99.90;;;;;;5060129;28;20106;-75
2021/08/13 08:59:31;;;;;;;12.15;2.75;;;23.20;99.90;;;;;;5035386;28;20047;-76
2021/08/13 09:01:58;;;;;;;9.43;3.88;;;23.30;99.90;;;;;;5046586;28;20028;-75
2021/08/13 09:04:24;;;;;;;5.50;3.15;;;23.60;99.90;;;;;;5054399;28;20105;-75
2021/08/13 09:06:50;;;;;;;3.95;2.63;;;23.60;99.90;;;;;;5053613;28;20051;-75
2021/08/13 09:09:16;;;;;;;12.85;3.67;;;23.00;99.90;;;;;;5051779;28;20111;-75
2021/08/13 09:11:43;;;;;;;8.10;3.70;;;22.50;99.90;;;;;;5051893;28;20025;-75
2021/08/13 09:14:15;;;;;;;9.93;3.70;;;22.30;99.90;;;;;;5051864;28;20017;-75
2021/08/13 09:17:00;;;;;;;4.80;3.42;;;22.30;99.90;;;;;;5048766;28;20049;-74
2021/08/13 09:19:41;;;;;;;5.03;2.85;;;22.70;99.90;;;;;;5053705;28;20096;-74
2021/08/13 09:22:09;;;;;;;6.68;2.90;;;23.00;99.90;;;;;;5060905;28;20045;-75
2021/08/13 09:24:40;;;;;;;4.22;2.90;;;23.20;99.90;;;;;;5041151;28;20037;-77
2021/08/13 09:27:18;;;;;;;11.70;3.45;;;23.70;99.90;;;;;;5052760;28;20056;-74
2021/08/13 09:30:14;;;;;;;7.25;2.90;;;24.10;99.90;;;;;;5069677;28;20044;-75
2021/08/13 09:32:57;;;;;;;10.80;3.30;;;24.20;99.90;;;;;;5054408;28;20049;-75
2021/08/13 09:35:30;;;;;;;7.47;2.58;;;24.00;99.90;;;;;;5050620;28;20370;-74
2021/08/13 09:37:56;;;;;;;4.93;2.92;;;24.00;99.90;;;;;;5051690;28;20394;-75
2021/08/13 09:40:22;;;;;;;7.85;3.30;;;24.10;99.90;;;;;;5050869;28;20033;-74
2021/08/13 09:42:49;;;;;;;3.13;2.80;;;24.20;99.90;;;;;;5050738;28;20028;-74
2021/08/13 09:45:14;;;;;;;7.73;4.30;;;23.60;99.90;;;;;;5047521;28;20533;-74
2021/08/13 09:47:46;;;;;;;9.05;5.28;;;23.10;99.90;;;;;;5051007;28;20059;-77
2021/08/13 09:50:14;;;;;;;11.25;5.43;;;22.90;99.90;;;;;;5065149;28;20094;-75
2021/08/13 09:52:41;;;;;;;14.38;8.77;;;22.50;99.90;;;;;;5052766;28;20025;-74
2021/08/13 09:55:13;;;;;;;7.95;3.55;;;22.60;99.90;;;;;;5050322;28;20064;-74
2021/08/13 09:57:47;;;;;;;5.85;4.03;;;22.70;99.90;;;;;;5052127;28;20017;-74
2021/08/13 10:00:15;;;;;;;7.07;3.15;;;22.90;99.90;;;;;;5052676;28;20100;-77
2021/08/13 10:02:42;;;;;;;5.05;2.58;;;23.00;99.90;;;;;;5051512;28;20449;-75
2021/08/13 10:05:23;;;;;;;6.20;3.25;;;22.80;99.90;;;;;;5048140;28;20021;-75
2021/08/13 10:07:56;;;;;;;5.88;3.72;;;22.50;99.90;;;;;;5048828;28;20099;-75
2021/08/13 10:10:29;;;;;;;5.05;2.33;;;22.60;99.90;;;;;;5066626;28;20366;-74
2021/08/13 10:12:55;;;;;;;8.13;2.80;;;23.10;99.90;;;;;;5051697;28;20373;-76
2021/08/13 10:15:30;;;;;;;4.07;2.80;;;23.50;99.90;;;;;;5050751;28;21172;-76
2021/08/13 10:18:00;;;;;;;4.78;2.53;;;24.00;99.90;;;;;;5066135;28;20025;-75
2021/08/13 10:20:28;;;;;;;4.95;2.30;;;24.10;99.90;;;;;;5065458;28;20060;-75
2021/08/13 10:22:54;;;;;;;9.60;2.47;;;24.20;99.90;;;;;;5067733;28;20025;-77
2021/08/13 10:25:20;;;;;;;4.95;2.60;;;24.00;99.90;;;;;;5051153;28;20363;-75
2021/08/13 10:27:47;;;;;;;3.75;2.15;;;23.60;99.90;;;;;;5050034;28;20016;-75
2021/08/13 10:30:16;;;;;;;4.97;2.38;;;23.50;99.90;;;;;;5068370;28;20033;-75
2021/08/13 10:32:43;;;;;;;2.10;1.90;;;23.60;99.90;;;;;;5049957;28;20017;-75
2021/08/13 10:35:09;;;;;;;5.32;2.00;;;23.80;99.90;;;;;;5051871;28;20049;-75
2021/08/13 10:37:37;;;;;;;4.78;1.83;;;23.90;99.90;;;;;;5069124;28;20096;-76
2021/08/13 10:40:05;;;;;;;6.00;2.00;;;24.00;99.90;;;;;;5052716;28;20496;-75
2021/08/13 10:42:36;;;;;;;6.03;2.22;;;24.30;99.90;;;;;;5067710;28;20067;-75
2021/08/13 10:45:05;;;;;;;3.92;1.55;;;24.20;99.90;;;;;;5052256;28;20392;-75
2021/08/13 10:47:50;;;;;;;9.07;1.77;;;24.20;99.90;;;;;;5050204;28;20036;-75
2021/08/13 10:50:17;;;;;;;8.07;1.60;;;24.00;99.90;;;;;;5044179;28;20026;-75
2021/08/13 10:52:43;;;;;;;;;;;24.00;99.90;;;;;;5050461;28;20031;-75
2021/08/13 10:55:29;;;;;;;8.00;1.77;;;23.80;99.90;;;;;;5052622;28;19995;-77
2021/08/13 10:57:55;;;;;;;7.22;1.98;;;23.50;99.90;;;;;;5051837;28;20481;-76
2021/08/13 11:00:21;;;;;;;7.03;2.07;;;23.50;99.90;;;;;;5054046;28;20052;-75
2021/08/13 11:03:15;;;;;;;8.93;2.10;;;23.20;99.90;;;;;;5054006;28;20523;-78
2021/08/13 11:05:58;;;;;;;10.35;2.30;;;22.90;99.90;;;;;;5070007;28;20385;-75
2021/08/13 11:08:45;;;;;;;6.13;2.10;;;22.60;99.90;;;;;;5057024;28;20464;-76
2021/08/13 11:11:15;;;;;;;6.60;1.85;;;22.60;99.90;;;;;;5052936;28;20564;-75
2021/08/13 11:13:43;;;;;;;4.88;1.75;;;22.50;99.90;;;;;;5069381;28;20389;-75
2021/08/13 11:16:51;;;;;;;7.22;2.08;;;22.60;99.90;;;;;;5054820;28;20017;-74
2021/08/13 11:19:19;;;;;;;6.65;2.05;;;22.70;99.90;;;;;;5048631;28;20473;-79
2021/08/13 11:21:49;;;;;;;9.43;2.28;;;22.70;99.90;;;;;;5051688;28;20024;-74
2021/08/13 11:24:16;;;;;;;5.68;2.10;;;22.60;99.90;;;;;;5052823;28;20033;-76
2021/08/13 11:26:50;;;;;;;11.52;1.75;;;22.60;99.90;;;;;;5052754;28;20115;-75
2021/08/13 11:29:28;;;;;;;11.70;2.25;;;22.50;99.90;;;;;;5056289;28;20029;-75
2021/08/13 11:31:58;;;;;;;9.05;2.13;;;22.50;99.90;;;;;;5052849;28;20028;-75
2021/08/13 11:34:58;;;;;;;4.10;2.50;;;22.50;99.90;;;;;;5036365;28;20021;-75
2021/08/13 11:37:27;;;;;;;7.72;2.08;;;22.50;99.90;;;;;;5053404;28;20534;-74
2021/08/13 11:39:54;;;;;;;10.48;2.33;;;22.60;99.90;;;;;;5053965;28;20531;-74
2021/08/13 11:42:22;;;;;;;6.00;1.73;;;22.60;99.90;;;;;;5046341;28;20033;-76
2021/08/13 11:44:49;;;;;;;2.97;1.42;;;22.60;99.90;;;;;;5053412;28;20404;-74
2021/08/13 11:47:19;;;;;;;10.57;1.73;;;22.60;99.90;;;;;;5050613;28;20017;-76
2021/08/13 11:49:48;;;;;;;9.63;2.05;;;22.70;99.90;;;;;;5048361;28;20040;-75
2021/08/13 11:52:22;;;;;;;10.90;2.10;;;22.90;99.90;;;;;;5060143;28;20028;-74
2021/08/13 11:54:49;;;;;;;9.68;2.50;;;23.00;99.90;;;;;;5056756;28;20080;-74
2021/08/13 11:57:20;;;;;;;7.43;2.92;;;23.10;99.90;;;;;;5067103;28;20021;-74
2021/08/13 11:59:49;;;;;;;10.20;3.10;;;23.10;99.90;;;;;;5047345;28;20104;-76
2021/08/13 12:02:26;;;;;;;4.55;2.13;;;23.00;99.90;;;;;;5054023;28;20033;-75
2021/08/13 12:05:04;;;;;;;7.03;2.20;;;23.10;99.90;;;;;;5054910;28;20500;-75
2021/08/13 12:07:29;;;;;;;6.10;2.08;;;23.00;99.90;;;;;;5051362;28;20053;-74
2021/08/13 12:09:55;;;;;;;13.05;2.63;;;23.00;99.90;;;;;;5052740;28;20056;-75
2021/08/13 12:12:29;;;;;;;6.65;1.95;;;22.90;99.90;;;;;;5055164;28;20032;-75
2021/08/13 12:14:57;;;;;;;9.02;2.13;;;22.70;99.90;;;;;;5055767;28;20078;-74
2021/08/13 12:17:23;;;;;;;6.97;1.98;;;22.70;99.90;;;;;;5047702;28;20067;-75
2021/08/13 12:19:53;;;;;;;17.13;2.92;;;22.60;99.90;;;;;;5055840;28;20435;-74
2021/08/13 12:22:30;;;;;;;7.90;1.80;;;22.70;99.90;;;;;;5053460;28;20773;-75
2021/08/13 12:24:55;;;;;;;6.20;2.17;;;22.80;99.90;;;;;;5061199;28;20128;-76
2021/08/13 12:27:27;;;;;;;6.93;2.00;;;22.80;99.90;;;;;;5053982;28;20108;-75
2021/08/13 12:29:52;;;;;;;7.13;2.08;;;22.80;99.90;;;;;;5055903;28;20481;-75
2021/08/13 12:32:18;;;;;;;11.65;2.22;;;22.80;99.90;;;;;;5055201;28;20029;-74
2021/08/13 12:34:44;;;;;;;9.00;2.58;;;22.60;99.90;;;;;;5052579;28;20029;-76
2021/08/13 12:37:12;;;;;;;5.85;1.63;;;22.60;99.90;;;;;;5053984;28;20027;-75
2021/08/13 12:39:43;;;;;;;6.95;2.10;;;22.60;99.90;;;;;;5053209;28;20056;-75
2021/08/13 12:42:11;;;;;;;6.38;2.08;;;22.80;99.90;;;;;;5053128;28;20028;-75
2021/08/13 12:44:41;;;;;;;5.60;1.52;;;22.90;99.90;;;;;;5052078;28;20044;-75
2021/08/13 12:47:08;;;;;;;6.68;1.92;;;22.90;99.90;;;;;;5046237;28;20025;-75
2021/08/13 12:49:39;;;;;;;14.15;4.00;;;23.00;99.90;;;;;;5050004;28;20017;-78